首页
METAR-TAF:

METAR-TAF

机场 :

特尔古穆列什, 罗马尼亚

纬度: 46-32N, 经度: 024-32E, 海拔: 308米

当前天气观测

该预报发布于23分钟前的19:30 UTC
风速1节,风向多变
温度 1°C
湿度 93%
气压 1023 hPa
能見度: 5000
轻雾

METAR: LRTM 181930Z AUTO VRB01KT 5000 BR FEW042/// BKN065/// BKN230/// 01/M00 Q1023

时间: 21:53 (19:53 UTC)

预报

该预报发布于2小时和53分钟前的17:00 UTC
预报有效从18日的 18点(UTC)到 19日的 03点(UTC)
风速4节,风向多变
能見度: 7000
散云层高于4000英尺
成为
从 18日的 19点(UTC)到 18日的 21点(UTC)
能見度: 3000
轻雾
成为
从 18日的 21点(UTC)到 18日的 23点(UTC)
能見度: 0800
阴天层高于200英尺
冻雾
短暂存在
从 19日的 00点(UTC)到 19日的 03点(UTC)
能見度: 0300
层高于100英尺
冻雾

TAF: LRTM 181700Z 1818/1903 VRB04KT 7000 SCT040 BECMG 1819/1821 3000 BR BECMG 1821/1823 0800 FZFG OVC002 TEMPO 1900/1903 0300 FZFG VV001

超过4000个机场的气象观测和天气预报(METAR&TAF报告)。

可查询的气象台以黄色和红色小点在地图上表示。

将鼠标移到小点上方,可查看气象台名称。

然后点击查看天气观测和预报。

如需切换地图:点击带黑十字的绿色按钮放大地图;点击带横线的绿色按钮缩小地图;或者点击绿色箭头查看邻近地区的地图。


METAR-TAF: